Time;durP1;ratioP1;P1;durP2;ratioP2;P2;SDS_P1;SDS_P2;PMS_P1;PMS_P2;Temp;Humidity;BMP_temperature;BMP_pressure;BME280_temperature;BME280_humidity;BME280_pressure;Samples;Min_cycle;Max_cycle;Signal;HPM_P1;HPM_P2
2022/10/20 00:01:22;;;;;;;8.38;1.95;;;;;;;;;;5038633;28;20449;-23
2022/10/20 00:03:49;;;;;;;7.53;1.65;;;;;;;;;;5038354;28;20042;-24
2022/10/20 00:06:24;;;;;;;9.05;2.00;;;;;;;;;;5038615;28;20463;-24
2022/10/20 00:08:51;;;;;;;10.70;2.50;;;;;;;;;;5038601;28;20472;-24
2022/10/20 00:11:18;;;;;;;7.15;2.40;;;;;;;;;;5038492;28;20030;-23
2022/10/20 00:13:46;;;;;;;5.85;2.58;;;;;;;;;;5038373;28;20045;-27
2022/10/20 00:16:12;;;;;;;7.18;2.67;;;;;;;;;;5038342;28;20017;-25
2022/10/20 00:18:39;;;;;;;10.32;2.03;;;;;;;;;;5038356;28;20095;-24
2022/10/20 00:21:06;;;;;;;10.05;2.40;;;;;;;;;;5038311;28;20121;-25
2022/10/20 00:23:32;;;;;;;4.25;2.58;;;;;;;;;;5038468;28;20049;-25
2022/10/20 00:26:03;;;;;;;10.68;2.40;;;;;;;;;;5038222;28;20099;-26
2022/10/20 00:28:29;;;;;;;8.87;2.17;;;;;;;;;;5038196;28;20079;-26
2022/10/20 00:30:55;;;;;;;6.88;2.35;;;;;;;;;;5038136;28;20112;-24
2022/10/20 00:33:22;;;;;;;7.53;2.08;;;;;;;;;;5038013;28;20045;-24
2022/10/20 00:35:48;;;;;;;5.30;2.50;;;;;;;;;;5038050;28;20028;-24
2022/10/20 00:38:14;;;;;;;6.63;2.20;;;;;;;;;;5038181;28;20040;-23
2022/10/20 00:40:40;;;;;;;8.95;2.35;;;;;;;;;;5038198;28;20342;-24
2022/10/20 00:43:10;;;;;;;4.35;2.03;;;;;;;;;;5020415;28;20474;-24
2022/10/20 00:45:37;;;;;;;5.63;1.98;;;;;;;;;;5037918;28;20104;-25
2022/10/20 00:48:14;;;;;;;5.32;2.00;;;;;;;;;;5037836;28;20033;-24
2022/10/20 00:50:42;;;;;;;4.35;2.00;;;;;;;;;;5038035;28;20107;-26
2022/10/20 00:53:08;;;;;;;8.05;2.42;;;;;;;;;;5037792;28;20032;-25
2022/10/20 00:55:37;;;;;;;9.23;2.58;;;;;;;;;;5037683;28;20037;-24
2022/10/20 00:58:04;;;;;;;4.93;2.40;;;;;;;;;;5037508;28;20045;-24
2022/10/20 01:00:30;;;;;;;4.65;2.55;;;;;;;;;;5037600;28;20026;-24
2022/10/20 01:02:59;;;;;;;4.10;2.30;;;;;;;;;;5037309;28;20049;-25
2022/10/20 01:05:25;;;;;;;7.20;2.03;;;;;;;;;;5037499;28;20104;-28
2022/10/20 01:07:51;;;;;;;5.30;1.75;;;;;;;;;;5037404;28;20028;-29
2022/10/20 01:10:18;;;;;;;6.50;2.45;;;;;;;;;;5037697;28;20360;-27
2022/10/20 01:12:44;;;;;;;7.93;2.40;;;;;;;;;;5037472;28;20518;-24
2022/10/20 01:15:19;;;;;;;8.07;2.53;;;;;;;;;;5037613;28;20037;-26
2022/10/20 01:18:00;;;;;;;6.07;2.08;;;;;;;;;;5037459;28;20368;-24
2022/10/20 01:20:37;;;;;;;10.18;2.72;;;;;;;;;;5037548;28;20025;-27
2022/10/20 01:23:09;;;;;;;7.60;2.33;;;;;;;;;;5037171;28;20127;-24
2022/10/20 01:25:50;;;;;;;4.63;2.33;;;;;;;;;;5037419;28;20483;-26
2022/10/20 01:28:22;;;;;;;5.85;2.35;;;;;;;;;;5037396;28;20033;-24
2022/10/20 01:30:54;;;;;;;8.43;2.75;;;;;;;;;;5037302;28;20045;-24
2022/10/20 01:33:20;;;;;;;4.80;2.00;;;;;;;;;;5036915;28;20099;-24
2022/10/20 01:35:52;;;;;;;4.18;1.95;;;;;;;;;;5037215;28;20041;-24
2022/10/20 01:38:42;;;;;;;6.80;2.65;;;;;;;;;;5037136;28;20034;-27
2022/10/20 01:41:08;;;;;;;5.05;2.25;;;;;;;;;;5036895;28;20109;-28
2022/10/20 01:43:36;;;;;;;9.02;2.10;;;;;;;;;;5036988;28;20105;-25
2022/10/20 01:46:04;;;;;;;6.15;2.17;;;;;;;;;;5036764;28;20086;-24
2022/10/20 01:48:32;;;;;;;5.97;2.33;;;;;;;;;;5019293;28;20026;-31
2022/10/20 01:51:00;;;;;;;4.35;2.03;;;;;;;;;;5036689;28;20017;-25
2022/10/20 01:53:27;;;;;;;4.78;2.10;;;;;;;;;;5036790;28;20352;-27
2022/10/20 01:55:54;;;;;;;5.50;2.03;;;;;;;;;;5036578;28;20076;-25
2022/10/20 01:58:26;;;;;;;6.20;2.20;;;;;;;;;;5036474;28;20037;-27
2022/10/20 02:00:54;;;;;;;4.93;2.58;;;;;;;;;;5036742;28;20028;-25
2022/10/20 02:03:23;;;;;;;8.15;2.53;;;;;;;;;;5036250;28;20045;-24
2022/10/20 02:06:02;;;;;;;5.60;1.90;;;;;;;;;;5036385;28;20064;-26
2022/10/20 02:08:28;;;;;;;5.78;2.00;;;;;;;;;;5036652;28;20033;-28
2022/10/20 02:10:57;;;;;;;3.00;1.85;;;;;;;;;;5036281;28;20029;-24
2022/10/20 02:13:24;;;;;;;6.95;2.17;;;;;;;;;;5036419;28;20360;-24
2022/10/20 02:15:55;;;;;;;9.20;2.20;;;;;;;;;;5036127;28;20095;-24
2022/10/20 02:18:24;;;;;;;5.95;2.70;;;;;;;;;;5036157;28;20041;-24
2022/10/20 02:20:52;;;;;;;6.13;3.28;;;;;;;;;;5035718;28;20029;-25
2022/10/20 02:23:18;;;;;;;5.65;2.40;;;;;;;;;;5018763;28;20021;-24
2022/10/20 02:25:46;;;;;;;3.28;1.80;;;;;;;;;;5035989;28;20029;-26
2022/10/20 02:28:13;;;;;;;5.70;2.08;;;;;;;;;;5036212;28;20087;-24
2022/10/20 02:30:39;;;;;;;4.28;1.75;;;;;;;;;;5035958;28;20025;-26
2022/10/20 02:33:06;;;;;;;3.53;1.80;;;;;;;;;;5018339;28;20120;-25
2022/10/20 02:35:33;;;;;;;2.63;1.85;;;;;;;;;;5035811;28;20083;-23
2022/10/20 02:38:00;;;;;;;6.28;2.63;;;;;;;;;;5035678;28;20094;-24
2022/10/20 02:40:27;;;;;;;6.65;2.08;;;;;;;;;;5036000;28;20405;-25
2022/10/20 02:42:53;;;;;;;7.03;3.67;;;;;;;;;;5035623;28;20124;-23
2022/10/20 02:45:19;;;;;;;5.45;2.40;;;;;;;;;;5035639;28;20029;-24
2022/10/20 02:47:46;;;;;;;9.20;2.58;;;;;;;;;;5035905;28;20080;-28
2022/10/20 02:50:12;;;;;;;7.95;3.00;;;;;;;;;;5035785;28;20213;-28
2022/10/20 02:52:39;;;;;;;3.97;2.40;;;;;;;;;;5035377;28;20033;-26
2022/10/20 02:55:05;;;;;;;5.75;3.03;;;;;;;;;;5035390;28;20029;-25
2022/10/20 02:57:32;;;;;;;6.30;1.98;;;;;;;;;;5035322;28;20033;-24
2022/10/20 02:59:58;;;;;;;3.95;2.67;;;;;;;;;;5035623;28;20037;-27
2022/10/20 03:02:24;;;;;;;6.40;1.92;;;;;;;;;;5035059;28;20048;-25
2022/10/20 03:04:50;;;;;;;4.32;2.03;;;;;;;;;;5035640;28;20052;-28
2022/10/20 03:07:16;;;;;;;6.38;2.10;;;;;;;;;;5035218;28;20049;-26
2022/10/20 03:09:43;;;;;;;5.95;1.85;;;;;;;;;;5035222;28;20412;-24
2022/10/20 03:12:09;;;;;;;2.38;1.98;;;;;;;;;;5035326;28;20057;-26
2022/10/20 03:14:35;;;;;;;5.25;2.65;;;;;;;;;;5035065;28;20030;-24
2022/10/20 03:17:01;;;;;;;4.03;2.10;;;;;;;;;;5035288;28;20040;-24
2022/10/20 03:19:27;;;;;;;3.88;2.20;;;;;;;;;;5035007;28;20451;-24
2022/10/20 03:21:53;;;;;;;4.18;1.80;;;;;;;;;;5034956;28;20393;-27
2022/10/20 03:24:19;;;;;;;3.97;2.03;;;;;;;;;;5034992;28;20057;-27
2022/10/20 03:26:46;;;;;;;3.35;1.80;;;;;;;;;;5034920;28;20372;-30
2022/10/20 03:29:12;;;;;;;5.15;1.98;;;;;;;;;;5034924;28;20131;-28
2022/10/20 03:31:38;;;;;;;3.38;2.40;;;;;;;;;;5034041;28;20072;-26
2022/10/20 03:34:04;;;;;;;4.38;2.08;;;;;;;;;;5034679;28;20096;-28
2022/10/20 03:36:30;;;;;;;6.13;2.45;;;;;;;;;;5034889;28;20037;-26
2022/10/20 03:38:56;;;;;;;6.30;2.72;;;;;;;;;;5034618;28;20144;-35
2022/10/20 03:41:22;;;;;;;4.68;2.20;;;;;;;;;;5034726;28;20087;-31
2022/10/20 03:43:49;;;;;;;3.53;2.17;;;;;;;;;;5034842;28;20021;-24
2022/10/20 03:46:15;;;;;;;5.15;1.92;;;;;;;;;;5034972;28;20437;-25
2022/10/20 03:48:41;;;;;;;6.05;2.45;;;;;;;;;;5034655;28;20041;-24
2022/10/20 03:51:08;;;;;;;5.55;2.55;;;;;;;;;;5017177;28;20107;-25
2022/10/20 03:53:34;;;;;;;3.63;2.10;;;;;;;;;;5034723;28;20033;-24
2022/10/20 03:56:08;;;;;;;4.07;1.70;;;;;;;;;;5017193;28;20103;-26
2022/10/20 03:58:34;;;;;;;7.07;2.33;;;;;;;;;;5034442;28;20048;-24
2022/10/20 04:01:01;;;;;;;3.97;2.20;;;;;;;;;;5034573;28;20109;-27
2022/10/20 04:03:27;;;;;;;4.00;2.03;;;;;;;;;;5034016;28;20464;-27
2022/10/20 04:05:53;;;;;;;8.00;4.60;;;;;;;;;;5034382;28;20029;-25
2022/10/20 04:08:19;;;;;;;3.35;1.73;;;;;;;;;;5034214;28;20036;-28
2022/10/20 04:10:45;;;;;;;5.45;2.45;;;;;;;;;;5035027;28;20357;-24
2022/10/20 04:13:11;;;;;;;3.70;2.33;;;;;;;;;;5034467;28;20168;-24
2022/10/20 04:15:38;;;;;;;4.43;2.47;;;;;;;;;;5034237;28;20444;-25
2022/10/20 04:18:04;;;;;;;4.05;1.90;;;;;;;;;;5034403;28;20436;-24
2022/10/20 04:20:30;;;;;;;2.75;1.63;;;;;;;;;;5034530;28;20021;-25
2022/10/20 04:22:56;;;;;;;9.02;3.08;;;;;;;;;;5034179;28;20025;-27
2022/10/20 04:25:22;;;;;;;4.45;1.95;;;;;;;;;;5034163;28;20364;-25
2022/10/20 04:27:48;;;;;;;3.67;1.70;;;;;;;;;;5034034;28;20084;-24
2022/10/20 04:30:14;;;;;;;2.80;2.45;;;;;;;;;;5016642;28;20523;-24
2022/10/20 04:32:41;;;;;;;2.13;1.75;;;;;;;;;;5034138;28;20183;-25
2022/10/20 04:35:07;;;;;;;3.45;2.22;;;;;;;;;;5034314;28;20037;-25
2022/10/20 04:37:33;;;;;;;2.55;1.80;;;;;;;;;;5033969;28;20037;-25
2022/10/20 04:39:59;;;;;;;6.72;1.73;;;;;;;;;;5034026;28;20025;-25
2022/10/20 04:42:26;;;;;;;5.40;1.83;;;;;;;;;;5035146;28;20025;-29
2022/10/20 04:44:52;;;;;;;7.40;3.67;;;;;;;;;;5037671;28;20017;-24
2022/10/20 04:47:18;;;;;;;7.93;2.30;;;;;;;;;;5020313;28;20037;-25
2022/10/20 04:49:44;;;;;;;4.18;1.52;;;;;;;;;;5020213;28;20026;-24
2022/10/20 04:52:10;;;;;;;4.13;2.03;;;;;;;;;;5037514;28;20036;-26
2022/10/20 04:54:36;;;;;;;7.43;2.00;;;;;;;;;;5037575;28;20108;-29
2022/10/20 04:57:04;;;;;;;4.75;2.13;;;;;;;;;;5037452;28;20345;-23
2022/10/20 04:59:30;;;;;;;8.63;1.95;;;;;;;;;;5037539;28;20164;-27
2022/10/20 05:01:57;;;;;;;10.18;2.10;;;;;;;;;;5037608;28;20026;-24
2022/10/20 05:04:23;;;;;;;4.05;2.00;;;;;;;;;;5037231;28;20057;-24
2022/10/20 05:06:49;;;;;;;6.20;2.22;;;;;;;;;;5037344;28;20109;-24
2022/10/20 05:09:15;;;;;;;7.85;1.95;;;;;;;;;;5037408;28;20033;-24
2022/10/20 05:11:42;;;;;;;4.43;1.60;;;;;;;;;;5037553;28;20033;-27
2022/10/20 05:14:08;;;;;;;2.75;1.90;;;;;;;;;;5037030;28;20049;-26
2022/10/20 05:16:34;;;;;;;5.90;1.83;;;;;;;;;;5037063;28;20026;-25
2022/10/20 05:19:00;;;;;;;5.32;2.30;;;;;;;;;;5037291;28;20496;-26
2022/10/20 05:21:28;;;;;;;9.02;2.53;;;;;;;;;;5037070;28;20076;-27
2022/10/20 05:23:58;;;;;;;4.30;2.08;;;;;;;;;;5037234;28;20033;-24
2022/10/20 05:26:25;;;;;;;3.90;2.05;;;;;;;;;;5038018;28;20071;-26
2022/10/20 05:28:51;;;;;;;4.18;1.77;;;;;;;;;;5037004;28;20029;-28
2022/10/20 05:31:19;;;;;;;4.25;1.60;;;;;;;;;;5036947;28;20334;-27
2022/10/20 05:33:46;;;;;;;3.50;2.03;;;;;;;;;;5036874;28;20384;-26
2022/10/20 05:36:13;;;;;;;4.03;2.03;;;;;;;;;;5019758;28;20029;-24
2022/10/20 05:38:40;;;;;;;5.95;3.17;;;;;;;;;;5019328;28;20120;-25
2022/10/20 05:41:07;;;;;;;9.05;2.22;;;;;;;;;;5037056;28;20350;-24
2022/10/20 05:43:33;;;;;;;3.90;1.88;;;;;;;;;;5019751;28;20053;-26
2022/10/20 05:45:59;;;;;;;6.20;2.10;;;;;;;;;;5020080;28;20026;-26
2022/10/20 05:48:25;;;;;;;5.47;1.63;;;;;;;;;;5036603;28;20025;-24
2022/10/20 05:50:51;;;;;;;4.63;1.88;;;;;;;;;;5036490;28;20121;-28
2022/10/20 05:53:18;;;;;;;5.47;2.05;;;;;;;;;;5036408;28;20021;-24
2022/10/20 05:55:44;;;;;;;5.38;2.88;;;;;;;;;;5036082;28;20131;-29
2022/10/20 05:58:11;;;;;;;7.63;1.90;;;;;;;;;;5036670;28;20037;-25
2022/10/20 06:03:17;;;;;;;3.08;1.85;;;;;;;;;;5393326;22;20065;-31
2022/10/20 06:05:44;;;;;;;4.75;2.00;;;;;;;;;;5036631;28;20419;-31
2022/10/20 06:08:10;;;;;;;3.13;2.05;;;;;;;;;;5036211;28;20033;-32
2022/10/20 06:10:36;;;;;;;3.47;2.40;;;;;;;;;;5036246;28;20029;-32
2022/10/20 06:13:02;;;;;;;3.10;1.85;;;;;;;;;;5036411;28;20033;-31
2022/10/20 06:15:28;;;;;;;5.07;1.77;;;;;;;;;;5036145;28;20109;-31
2022/10/20 06:17:54;;;;;;;8.40;2.58;;;;;;;;;;5035897;28;20029;-32
2022/10/20 06:20:20;;;;;;;5.40;1.85;;;;;;;;;;5036201;28;20039;-31
2022/10/20 06:22:46;;;;;;;6.78;2.10;;;;;;;;;;5036057;28;20029;-31
2022/10/20 06:25:13;;;;;;;3.15;1.77;;;;;;;;;;5018542;28;20032;-32
2022/10/20 06:27:41;;;;;;;10.05;2.00;;;;;;;;;;5036196;28;20360;-32
2022/10/20 06:30:07;;;;;;;6.15;3.20;;;;;;;;;;5035937;28;20049;-31
2022/10/20 06:32:33;;;;;;;6.07;1.90;;;;;;;;;;5035573;28;20037;-31
2022/10/20 06:34:59;;;;;;;4.43;1.70;;;;;;;;;;5035564;28;20040;-31
2022/10/20 06:37:26;;;;;;;9.70;3.03;;;;;;;;;;5035626;28;20414;-32
2022/10/20 06:39:52;;;;;;;4.93;1.90;;;;;;;;;;5035730;28;20037;-32
2022/10/20 06:42:18;;;;;;;2.55;1.90;;;;;;;;;;5018010;28;20029;-30
2022/10/20 06:44:44;;;;;;;10.23;2.47;;;;;;;;;;5035376;28;20045;-30
2022/10/20 06:47:10;;;;;;;7.22;1.95;;;;;;;;;;5017890;28;20482;-30
2022/10/20 06:49:37;;;;;;;9.80;2.00;;;;;;;;;;5035310;28;20060;-31
2022/10/20 06:52:03;;;;;;;4.82;2.08;;;;;;;;;;5035227;28;20033;-32
2022/10/20 06:54:29;;;;;;;4.82;2.28;;;;;;;;;;5035972;28;20021;-31
2022/10/20 06:56:55;;;;;;;13.55;2.92;;;;;;;;;;5035656;28;20108;-30
2022/10/20 06:59:21;;;;;;;5.88;2.25;;;;;;;;;;5034976;28;20448;-30
2022/10/20 07:01:47;;;;;;;6.10;2.22;;;;;;;;;;5035328;28;20021;-31
2022/10/20 07:04:14;;;;;;;5.15;2.10;;;;;;;;;;5035059;28;20482;-31
2022/10/20 07:06:42;;;;;;;6.78;2.10;;;;;;;;;;5035305;28;20033;-32
2022/10/20 07:09:12;;;;;;;8.80;2.13;;;;;;;;;;5035159;28;20029;-32
2022/10/20 07:11:39;;;;;;;6.17;1.93;;;;;;;;;;5035378;28;20080;-32
2022/10/20 07:14:05;;;;;;;4.72;2.65;;;;;;;;;;5035607;28;20343;-30
2022/10/20 07:16:33;;;;;;;4.82;1.95;;;;;;;;;;5035004;28;20022;-32
2022/10/20 07:18:59;;;;;;;5.47;2.00;;;;;;;;;;5017634;28;20135;-33
2022/10/20 07:21:27;;;;;;;8.40;1.90;;;;;;;;;;5035521;28;20033;-32
2022/10/20 07:23:56;;;;;;;17.17;3.20;;;;;;;;;;5034868;28;20060;-32
2022/10/20 07:26:24;;;;;;;6.97;2.33;;;;;;;;;;5035158;28;20057;-31
2022/10/20 07:28:51;;;;;;;9.05;2.67;;;;;;;;;;5034846;28;20472;-31
2022/10/20 07:31:38;;;;;;;4.97;2.25;;;;;;;;;;5034771;28;20059;-31
2022/10/20 07:34:05;;;;;;;7.07;1.83;;;;;;;;;;5034963;28;20037;-32
2022/10/20 07:36:32;;;;;;;6.65;1.90;;;;;;;;;;5034551;28;20025;-31
2022/10/20 07:39:00;;;;;;;7.22;2.22;;;;;;;;;;5034677;28;20025;-32
2022/10/20 07:41:27;;;;;;;12.18;1.95;;;;;;;;;;5035379;28;20456;-32
2022/10/20 07:43:54;;;;;;;6.90;1.92;;;;;;;;;;5034516;28;20032;-31
2022/10/20 07:46:20;;;;;;;12.63;2.58;;;;;;;;;;5034866;28;20080;-30
2022/10/20 07:48:46;;;;;;;11.55;3.03;;;;;;;;;;5034534;28;20025;-32
2022/10/20 07:51:33;;;;;;;9.93;2.40;;;;;;;;;;5034507;28;20033;-31
2022/10/20 07:54:02;;;;;;;7.55;2.17;;;;;;;;;;5034760;28;20030;-31
2022/10/20 07:56:29;;;;;;;20.08;3.80;;;;;;;;;;5034451;28;20017;-31
2022/10/20 07:58:56;;;;;;;5.00;2.67;;;;;;;;;;5034597;28;20037;-33
2022/10/20 08:01:22;;;;;;;10.85;2.50;;;;;;;;;;5034717;28;20359;-32
2022/10/20 08:03:48;;;;;;;8.23;2.28;;;;;;;;;;5034408;28;20045;-32
2022/10/20 08:06:14;;;;;;;6.43;2.50;;;;;;;;;;5017241;28;20068;-31
2022/10/20 08:08:40;;;;;;;3.85;2.20;;;;;;;;;;5034285;28;20033;-32
2022/10/20 08:11:07;;;;;;;8.50;2.22;;;;;;;;;;5034423;28;20034;-32
2022/10/20 08:13:33;;;;;;;11.55;3.40;;;;;;;;;;5034210;28;20045;-31
2022/10/20 08:16:00;;;;;;;10.50;2.15;;;;;;;;;;5034363;28;20041;-32
2022/10/20 08:18:26;;;;;;;6.60;3.35;;;;;;;;;;5037402;28;20029;-31
2022/10/20 08:20:52;;;;;;;8.07;2.42;;;;;;;;;;5038584;28;20029;-31
2022/10/20 08:23:19;;;;;;;9.02;2.40;;;;;;;;;;5038177;28;20399;-31
2022/10/20 08:25:45;;;;;;;12.38;2.03;;;;;;;;;;5038371;28;20033;-31
2022/10/20 08:28:11;;;;;;;10.05;2.47;;;;;;;;;;5038255;28;20033;-31
2022/10/20 08:30:37;;;;;;;6.43;2.08;;;;;;;;;;5038555;28;20071;-31
2022/10/20 08:33:04;;;;;;;3.97;2.10;;;;;;;;;;5037970;28;20029;-31
2022/10/20 08:35:30;;;;;;;10.45;2.58;;;;;;;;;;5038194;28;20033;-31
2022/10/20 08:37:56;;;;;;;9.23;2.38;;;;;;;;;;5038366;28;20041;-32
2022/10/20 08:40:27;;;;;;;9.43;2.17;;;;;;;;;;5020437;28;20352;-31
2022/10/20 08:42:54;;;;;;;5.88;2.33;;;;;;;;;;5038021;28;20069;-31
2022/10/20 08:45:21;;;;;;;8.27;3.47;;;;;;;;;;5038278;28;20029;-31
2022/10/20 08:47:50;;;;;;;10.07;2.53;;;;;;;;;;5037769;28;20041;-31
2022/10/20 08:50:18;;;;;;;9.15;2.67;;;;;;;;;;5038021;28;20036;-31
2022/10/20 08:52:44;;;;;;;9.93;1.95;;;;;;;;;;5038343;28;20064;-32
2022/10/20 08:55:18;;;;;;;5.68;2.25;;;;;;;;;;5037629;28;20033;-31
2022/10/20 08:57:47;;;;;;;5.28;2.17;;;;;;;;;;5037830;28;20076;-32
2022/10/20 09:00:21;;;;;;;5.45;2.05;;;;;;;;;;5020384;28;20029;-31
2022/10/20 09:02:48;;;;;;;9.60;2.58;;;;;;;;;;5037372;28;20357;-32
2022/10/20 09:05:16;;;;;;;8.52;1.92;;;;;;;;;;5037257;28;20018;-32
2022/10/20 09:07:42;;;;;;;12.27;2.38;;;;;;;;;;5037347;28;20033;-31
2022/10/20 09:10:23;;;;;;;4.65;1.95;;;;;;;;;;5037175;28;20125;-32
2022/10/20 09:12:50;;;;;;;6.22;2.38;;;;;;;;;;5037397;28;20036;-31
2022/10/20 09:15:17;;;;;;;12.57;2.47;;;;;;;;;;5037519;28;20395;-31
2022/10/20 09:17:49;;;;;;;6.18;2.50;;;;;;;;;;5019587;28;20041;-32
2022/10/20 09:20:20;;;;;;;12.05;2.80;;;;;;;;;;5037258;28;20049;-32
2022/10/20 09:22:46;;;;;;;10.65;2.55;;;;;;;;;;5037270;28;20029;-31
2022/10/20 09:25:15;;;;;;;14.40;4.68;;;;;;;;;;5036994;28;20053;-31
2022/10/20 09:27:43;;;;;;;7.03;2.60;;;;;;;;;;5036931;28;20032;-32
2022/10/20 09:30:17;;;;;;;15.68;2.40;;;;;;;;;;5035960;28;20090;-32
2022/10/20 09:32:43;;;;;;;13.52;3.38;;;;;;;;;;5037037;28;20444;-32
2022/10/20 09:35:26;;;;;;;13.77;3.15;;;;;;;;;;5036810;28;20064;-42
2022/10/20 09:37:52;;;;;;;8.40;2.80;;;;;;;;;;5036735;28;20172;-31
2022/10/20 09:40:19;;;;;;;22.98;2.90;;;;;;;;;;5037283;28;20029;-32
2022/10/20 09:42:49;;;;;;;11.75;2.10;;;;;;;;;;5036631;28;20036;-31
2022/10/20 09:45:15;;;;;;;16.52;2.53;;;;;;;;;;5036645;28;20091;-32
2022/10/20 09:47:46;;;;;;;15.30;3.05;;;;;;;;;;5036756;28;20034;-32
2022/10/20 09:50:18;;;;;;;10.18;2.75;;;;;;;;;;5036974;28;20029;-31
2022/10/20 09:52:47;;;;;;;19.50;3.47;;;;;;;;;;5036862;28;20025;-31
2022/10/20 09:55:30;;;;;;;11.60;2.65;;;;;;;;;;5036451;28;20056;-32
2022/10/20 09:57:57;;;;;;;7.55;2.63;;;;;;;;;;5036454;28;20084;-32
2022/10/20 10:00:35;;;;;;;13.25;4.18;;;;;;;;;;5019088;28;20514;-31
2022/10/20 10:03:27;;;;;;;9.90;2.47;;;;;;;;;;5036380;28;20041;-31
2022/10/20 10:06:13;;;;;;;6.85;2.05;;;;;;;;;;5015611;28;20057;-32
2022/10/20 10:08:44;;;;;;;9.02;2.30;;;;;;;;;;5035666;28;20341;-31
2022/10/20 10:11:15;;;;;;;6.78;2.03;;;;;;;;;;5036248;28;20043;-32
2022/10/20 10:13:43;;;;;;;14.35;2.63;;;;;;;;;;5036153;28;20097;-32
2022/10/20 10:16:10;;;;;;;15.10;2.42;;;;;;;;;;5036123;28;20100;-31
2022/10/20 10:18:37;;;;;;;18.02;5.00;;;;;;;;;;5036390;28;20113;-32
2022/10/20 10:21:08;;;;;;;15.18;2.40;;;;;;;;;;5035992;28;20022;-31
2022/10/20 10:23:39;;;;;;;11.98;2.35;;;;;;;;;;5018725;28;20113;-31
2022/10/20 10:26:25;;;;;;;13.57;2.38;;;;;;;;;;5036237;28;20071;-32
2022/10/20 10:28:57;;;;;;;22.38;2.78;;;;;;;;;;5035864;28;20029;-32
2022/10/20 10:31:24;;;;;;;6.13;2.10;;;;;;;;;;5036105;28;20375;-32
2022/10/20 10:33:53;;;;;;;8.48;2.00;;;;;;;;;;5035686;28;20037;-32
2022/10/20 10:36:30;;;;;;;7.45;2.92;;;;;;;;;;5035772;28;20094;-32
2022/10/20 10:38:57;;;;;;;10.23;2.28;;;;;;;;;;5035708;28;20040;-32
2022/10/20 10:41:43;;;;;;;6.97;2.33;;;;;;;;;;5035573;28;20056;-33
2022/10/20 10:44:33;;;;;;;9.07;4.05;;;;;;;;;;5035861;28;20079;-31
2022/10/20 10:47:08;;;;;;;12.10;3.67;;;;;;;;;;5025470;28;20045;-32
2022/10/20 10:49:37;;;;;;;13.60;3.13;;;;;;;;;;5035625;28;20056;-32
2022/10/20 10:52:22;;;;;;;5.65;2.22;;;;;;;;;;5035280;28;20037;-33
2022/10/20 10:55:07;;;;;;;9.27;2.58;;;;;;;;;;5035600;28;20034;-32
2022/10/20 10:57:52;;;;;;;9.73;2.35;;;;;;;;;;5017777;28;20029;-32
2022/10/20 11:00:39;;;;;;;10.55;2.58;;;;;;;;;;5035267;28;20091;-33
2022/10/20 11:03:14;;;;;;;16.25;2.78;;;;;;;;;;5035196;28;20049;-32
2022/10/20 11:05:40;;;;;;;8.98;2.92;;;;;;;;;;5035172;28;20114;-32
2022/10/20 11:08:22;;;;;;;10.85;2.85;;;;;;;;;;5035211;28;20061;-32
2022/10/20 11:10:58;;;;;;;14.60;2.70;;;;;;;;;;5035562;28;20025;-33
2022/10/20 11:13:25;;;;;;;15.75;2.38;;;;;;;;;;5035106;28;20391;-32
2022/10/20 11:16:05;;;;;;;7.90;2.33;;;;;;;;;;5035191;28;20034;-31
2022/10/20 11:18:32;;;;;;;8.23;3.00;;;;;;;;;;5035457;28;20053;-31
2022/10/20 11:21:17;;;;;;;11.10;2.03;;;;;;;;;;5035079;28;20124;-32
2022/10/20 11:23:53;;;;;;;13.25;2.17;;;;;;;;;;5017670;28;20037;-30
2022/10/20 11:26:19;;;;;;;13.93;2.50;;;;;;;;;;5034881;28;20022;-31
2022/10/20 11:28:46;;;;;;;15.32;2.40;;;;;;;;;;5034813;28;20030;-30
2022/10/20 11:31:31;;;;;;;17.77;2.35;;;;;;;;;;5034725;28;20045;-30
2022/10/20 11:34:04;;;;;;;12.40;2.60;;;;;;;;;;5034685;28;20033;-31
2022/10/20 11:36:42;;;;;;;11.15;2.92;;;;;;;;;;5034956;28;20033;-31
2022/10/20 11:39:17;;;;;;;9.80;2.40;;;;;;;;;;5035025;28;20021;-31
2022/10/20 11:41:48;;;;;;;9.15;2.38;;;;;;;;;;5035387;28;20037;-31
2022/10/20 11:44:17;;;;;;;6.40;2.47;;;;;;;;;;5034654;28;20095;-31
2022/10/20 11:46:47;;;;;;;11.55;2.75;;;;;;;;;;5034637;28;20029;-30
2022/10/20 11:49:13;;;;;;;12.93;2.83;;;;;;;;;;5017362;28;20050;-30
2022/10/20 11:51:46;;;;;;;10.68;3.65;;;;;;;;;;5033668;28;20029;-30
2022/10/20 11:54:21;;;;;;;6.63;2.80;;;;;;;;;;5035044;28;20034;-31
2022/10/20 11:56:50;;;;;;;10.30;2.28;;;;;;;;;;5034471;28;20022;-31
2022/10/20 11:59:19;;;;;;;9.65;2.25;;;;;;;;;;5034485;28;20025;-30
2022/10/20 12:01:51;;;;;;;18.58;2.67;;;;;;;;;;5016921;28;20341;-31
2022/10/20 12:04:36;;;;;;;14.93;2.80;;;;;;;;;;5034400;28;20045;-30
2022/10/20 12:07:28;;;;;;;8.65;3.05;;;;;;;;;;5034685;28;20103;-30
2022/10/20 12:10:13;;;;;;;8.57;2.53;;;;;;;;;;5030842;28;20037;-30
2022/10/20 12:12:55;;;;;;;8.20;2.70;;;;;;;;;;5034244;28;20044;-29
2022/10/20 12:15:21;;;;;;;;;;;;;;;;;;5034841;28;20028;-30
2022/10/20 12:17:47;;;;;;;16.88;3.10;;;;;;;;;;5034284;28;20007;-29
2022/10/20 12:20:19;;;;;;;11.50;2.83;;;;;;;;;;5034860;28;20083;-30
2022/10/20 12:22:47;;;;;;;10.25;1.98;;;;;;;;;;5034553;28;20125;-31
2022/10/20 12:25:25;;;;;;;9.30;2.50;;;;;;;;;;5034276;28;20019;-31
2022/10/20 12:28:10;;;;;;;10.68;2.08;;;;;;;;;;5034514;28;20029;-30
2022/10/20 12:30:39;;;;;;;6.95;1.92;;;;;;;;;;5034254;28;20183;-31
2022/10/20 12:33:28;;;;;;;7.95;2.72;;;;;;;;;;5034099;28;20033;-30
2022/10/20 12:36:23;;;;;;;14.85;4.00;;;;;;;;;;4997622;28;20452;-31
2022/10/20 12:38:51;;;;;;;16.15;2.67;;;;;;;;;;5034329;28;20029;-31
2022/10/20 12:41:43;;;;;;;10.93;2.45;;;;;;;;;;5034051;28;20028;-31
2022/10/20 12:44:17;;;;;;;15.20;4.45;;;;;;;;;;5004567;28;20111;-31
2022/10/20 12:46:51;;;;;;;14.80;2.65;;;;;;;;;;5034186;28;20087;-31
2022/10/20 12:49:27;;;;;;;7.78;2.53;;;;;;;;;;5034108;28;20060;-31
2022/10/20 12:51:54;;;;;;;12.05;2.45;;;;;;;;;;5033784;28;20032;-30
2022/10/20 12:54:21;;;;;;;10.43;2.80;;;;;;;;;;5034312;28;20148;-30
2022/10/20 12:56:47;;;;;;;5.25;2.58;;;;;;;;;;5033791;28;20021;-31
2022/10/20 12:59:19;;;;;;;10.88;3.05;;;;;;;;;;5033737;28;20369;-31
2022/10/20 13:02:04;;;;;;;8.43;2.50;;;;;;;;;;5034014;28;20053;-31
2022/10/20 13:05:00;;;;;;;10.55;2.65;;;;;;;;;;4997495;28;20065;-30
2022/10/20 13:07:45;;;;;;;5.68;2.00;;;;;;;;;;4946173;28;20108;-30
2022/10/20 13:10:26;;;;;;;11.05;2.58;;;;;;;;;;4998157;28;20113;-30
2022/10/20 13:13:01;;;;;;;16.88;3.17;;;;;;;;;;4996963;28;20465;-30
2022/10/20 13:15:32;;;;;;;10.20;2.22;;;;;;;;;;4996952;28;20030;-31
2022/10/20 13:18:01;;;;;;;9.13;2.30;;;;;;;;;;4997886;28;20022;-29
2022/10/20 13:20:45;;;;;;;7.57;2.53;;;;;;;;;;4997884;28;20037;-29
2022/10/20 13:23:15;;;;;;;8.65;2.25;;;;;;;;;;4998465;28;20026;-30
2022/10/20 13:25:46;;;;;;;9.65;2.95;;;;;;;;;;4998371;28;20069;-30
2022/10/20 13:28:12;;;;;;;6.97;3.42;;;;;;;;;;4997730;28;20026;-30
2022/10/20 13:30:49;;;;;;;17.73;3.53;;;;;;;;;;4997832;28;20108;-30
2022/10/20 13:33:27;;;;;;;10.07;3.55;;;;;;;;;;4997613;28;20033;-30
2022/10/20 13:35:56;;;;;;;17.02;2.92;;;;;;;;;;4997903;28;20068;-30
2022/10/20 13:38:26;;;;;;;7.45;2.25;;;;;;;;;;4997650;28;20073;-31
2022/10/20 13:41:02;;;;;;;12.52;3.05;;;;;;;;;;4997529;28;20105;-31
2022/10/20 13:43:28;;;;;;;10.68;2.72;;;;;;;;;;4997727;28;20023;-31
2022/10/20 13:46:10;;;;;;;10.60;2.60;;;;;;;;;;4996454;28;20445;-30
2022/10/20 13:49:04;;;;;;;8.80;2.50;;;;;;;;;;4997622;28;20034;-30
2022/10/20 13:51:32;;;;;;;8.35;2.85;;;;;;;;;;4997596;28;20041;-31
2022/10/20 13:54:00;;;;;;;9.93;2.35;;;;;;;;;;4997353;28;20357;-30
2022/10/20 13:56:35;;;;;;;11.00;2.97;;;;;;;;;;4996164;28;20022;-30
2022/10/20 13:59:02;;;;;;;11.23;2.55;;;;;;;;;;4997143;28;20030;-30
2022/10/20 14:01:30;;;;;;;10.27;2.90;;;;;;;;;;4998160;28;20450;-31
2022/10/20 14:03:56;;;;;;;8.05;2.42;;;;;;;;;;5027819;28;20146;-31
2022/10/20 14:06:31;;;;;;;6.13;2.10;;;;;;;;;;5036643;28;20379;-31
2022/10/20 14:08:58;;;;;;;11.32;2.53;;;;;;;;;;5019034;28;20037;-31
2022/10/20 14:11:29;;;;;;;10.68;3.40;;;;;;;;;;5036508;28;20026;-30
2022/10/20 14:13:56;;;;;;;7.65;2.30;;;;;;;;;;5019354;28;20360;-29
2022/10/20 14:16:23;;;;;;;8.07;2.53;;;;;;;;;;5035419;28;20029;-30
2022/10/20 14:19:07;;;;;;;7.50;2.55;;;;;;;;;;5036271;28;20108;-32
2022/10/20 14:21:40;;;;;;;9.00;2.50;;;;;;;;;;5036067;28;20100;-31
2022/10/20 14:24:06;;;;;;;10.23;2.97;;;;;;;;;;5036195;28;20037;-31
2022/10/20 14:26:33;;;;;;;12.02;3.47;;;;;;;;;;5036310;28;20341;-32
2022/10/20 14:29:01;;;;;;;12.35;2.85;;;;;;;;;;5036250;28;20033;-31
2022/10/20 14:31:27;;;;;;;10.07;3.63;;;;;;;;;;5019224;28;20095;-31
2022/10/20 14:33:53;;;;;;;11.27;3.60;;;;;;;;;;5036118;28;20104;-31
2022/10/20 14:36:23;;;;;;;8.13;2.72;;;;;;;;;;5036055;28;20017;-31
2022/10/20 14:38:51;;;;;;;11.30;2.53;;;;;;;;;;5018168;28;20157;-31
2022/10/20 14:41:28;;;;;;;11.18;2.80;;;;;;;;;;5035600;28;20029;-31
2022/10/20 14:43:58;;;;;;;8.48;2.30;;;;;;;;;;5035611;28;20399;-31
2022/10/20 14:46:29;;;;;;;12.45;2.70;;;;;;;;;;5035610;28;20018;-31
2022/10/20 14:48:58;;;;;;;10.18;2.53;;;;;;;;;;5035839;28;20456;-31
2022/10/20 14:51:28;;;;;;;9.23;2.78;;;;;;;;;;5017905;28;20097;-31
2022/10/20 14:54:15;;;;;;;13.13;3.17;;;;;;;;;;5017846;28;20034;-31
2022/10/20 14:56:46;;;;;;;9.45;2.47;;;;;;;;;;5035196;28;20420;-31
2022/10/20 14:59:14;;;;;;;9.63;2.72;;;;;;;;;;5035506;28;20049;-31